Time;durP1;ratioP1;P1;durP2;ratioP2;P2;SDS_P1;SDS_P2;PMS_P1;PMS_P2;Temp;Humidity;BMP_temperature;BMP_pressure;BME280_temperature;BME280_humidity;BME280_pressure;Samples;Min_cycle;Max_cycle;Signal;HPM_P1;HPM_P2
2023/03/11 00:01:10;;;;;;;1.47;1.10;;;3.60;62.30;;;;;;5074536;28;20563;-83
2023/03/11 00:03:37;;;;;;;1.40;1.30;;;3.60;62.90;;;;;;5076948;28;20203;-83
2023/03/11 00:06:05;;;;;;;1.40;1.30;;;3.60;63.40;;;;;;5072738;28;20213;-86
2023/03/11 00:08:32;;;;;;;1.30;1.20;;;3.60;63.90;;;;;;5072193;28;20197;-83
2023/03/11 00:11:01;;;;;;;1.40;1.30;;;3.40;59.00;;;;;;5077164;28;20281;-82
2023/03/11 00:13:29;;;;;;;1.30;1.20;;;3.30;61.00;;;;;;5074855;28;20289;-82
2023/03/11 00:15:56;;;;;;;1.00;1.00;;;3.30;60.60;;;;;;5083709;28;20592;-82
2023/03/11 00:18:25;;;;;;;1.10;1.00;;;3.30;58.50;;;;;;5073542;28;20201;-83
2023/03/11 00:20:53;;;;;;;1.20;1.13;;;3.30;58.70;;;;;;5073409;28;20189;-83
2023/03/11 00:23:20;;;;;;;1.20;1.10;;;3.20;57.20;;;;;;5075694;28;20248;-82
2023/03/11 00:25:48;;;;;;;2.13;1.10;;;3.20;59.00;;;;;;5084787;28;20221;-83
2023/03/11 00:28:16;;;;;;;1.00;1.00;;;3.10;59.10;;;;;;5086215;28;20196;-83
2023/03/11 00:30:45;;;;;;;1.00;1.00;;;3.10;58.50;;;;;;5073490;28;20200;-82
2023/03/11 00:33:13;;;;;;;1.17;1.07;;;3.00;58.30;;;;;;5082287;28;20208;-82
2023/03/11 00:35:40;;;;;;;1.00;1.00;;;3.00;59.90;;;;;;5076365;28;20201;-82
2023/03/11 00:38:11;;;;;;;1.57;1.40;;;3.00;58.80;;;;;;5079919;28;20195;-83
2023/03/11 00:40:39;;;;;;;1.87;1.30;;;2.90;60.30;;;;;;5076149;28;20197;-82
2023/03/11 00:43:07;;;;;;;1.03;1.00;;;2.90;59.10;;;;;;5078979;28;20193;-82
2023/03/11 00:45:36;;;;;;;3.87;1.50;;;2.90;59.00;;;;;;5080615;28;20229;-82
2023/03/11 00:48:03;;;;;;;0.90;0.90;;;2.90;58.60;;;;;;5080405;28;20198;-82
2023/03/11 00:50:31;;;;;;;1.37;1.27;;;2.90;58.80;;;;;;5074657;28;20204;-82
2023/03/11 00:52:59;;;;;;;1.60;1.50;;;2.90;59.90;;;;;;5075799;28;20228;-82
2023/03/11 00:55:28;;;;;;;1.30;1.20;;;2.90;59.40;;;;;;5080748;28;20219;-83
2023/03/11 00:57:58;;;;;;;1.30;1.20;;;2.90;59.20;;;;;;5072388;28;20272;-82
2023/03/11 01:00:26;;;;;;;2.20;1.20;;;2.90;59.30;;;;;;5083940;28;20200;-84
2023/03/11 01:02:56;;;;;;;1.13;1.10;;;2.80;60.00;;;;;;5089416;28;20205;-82
2023/03/11 01:05:25;;;;;;;2.03;1.20;;;2.80;60.40;;;;;;5080493;28;20217;-83
2023/03/11 01:07:53;;;;;;;1.40;1.30;;;2.80;60.60;;;;;;5084965;28;20197;-82
2023/03/11 01:10:20;;;;;;;1.57;1.10;;;2.80;60.90;;;;;;5078556;28;20194;-82
2023/03/11 01:12:47;;;;;;;1.80;1.20;;;2.80;60.70;;;;;;5081308;28;20208;-83
2023/03/11 01:15:19;;;;;;;0.93;0.93;;;2.80;60.60;;;;;;5079140;28;20278;-83
2023/03/11 01:17:46;;;;;;;1.63;1.53;;;2.80;62.40;;;;;;5083549;28;21776;-83
2023/03/11 01:20:15;;;;;;;2.03;1.20;;;2.90;62.40;;;;;;5082838;28;20653;-83
2023/03/11 01:22:42;;;;;;;1.30;1.20;;;2.90;61.00;;;;;;5085283;28;20239;-83
2023/03/11 01:25:12;;;;;;;1.40;1.20;;;2.90;60.60;;;;;;5088456;28;20574;-83
2023/03/11 01:27:39;;;;;;;1.80;1.10;;;2.80;62.30;;;;;;5083837;28;20205;-85
2023/03/11 01:30:07;;;;;;;1.10;1.07;;;2.70;64.90;;;;;;5081678;28;20202;-83
2023/03/11 01:32:34;;;;;;;1.10;1.10;;;2.70;62.10;;;;;;5081349;28;20209;-82
2023/03/11 01:35:00;;;;;;;1.60;1.20;;;2.70;63.80;;;;;;5089270;28;21594;-83
2023/03/11 01:37:29;;;;;;;1.10;1.00;;;2.70;63.30;;;;;;5084798;28;20213;-83
2023/03/11 01:39:56;;;;;;;1.33;1.23;;;2.60;63.60;;;;;;5084786;28;20201;-82
2023/03/11 01:42:23;;;;;;;1.50;1.40;;;2.60;65.20;;;;;;5083355;28;20208;-83
2023/03/11 01:44:49;;;;;;;1.30;1.20;;;2.60;65.10;;;;;;5082362;28;20193;-83
2023/03/11 01:47:43;;;;;;;3.47;1.10;;;2.70;64.00;;;;;;5082286;28;20278;-83
2023/03/11 01:50:13;;;;;;;1.40;1.10;;;2.70;65.30;;;;;;5059512;28;20288;-83
2023/03/11 01:52:43;;;;;;;1.30;1.20;;;2.70;63.20;;;;;;5086995;28;20681;-83
2023/03/11 01:55:12;;;;;;;2.33;1.30;;;2.70;64.20;;;;;;5087551;28;20240;-81
2023/03/11 01:57:41;;;;;;;1.20;1.10;;;2.60;64.30;;;;;;5081671;28;20196;-83
2023/03/11 02:00:11;;;;;;;2.13;1.27;;;2.50;65.80;;;;;;5084894;28;20228;-83
2023/03/11 02:02:42;;;;;;;1.23;1.13;;;2.50;65.20;;;;;;5086067;28;20200;-82
2023/03/11 02:05:10;;;;;;;1.47;1.10;;;2.50;63.80;;;;;;5078683;28;20219;-82
2023/03/11 02:07:38;;;;;;;1.10;1.00;;;2.50;64.90;;;;;;5085034;28;20197;-82
2023/03/11 02:10:09;;;;;;;1.47;1.37;;;2.40;64.80;;;;;;5078592;28;20193;-82
2023/03/11 02:12:37;;;;;;;1.13;1.13;;;2.40;64.80;;;;;;5077330;28;20204;-82
2023/03/11 02:15:06;;;;;;;1.33;1.10;;;2.40;62.50;;;;;;5077092;28;20232;-83
2023/03/11 02:17:34;;;;;;;1.57;1.20;;;2.40;62.80;;;;;;5082705;28;20200;-82
2023/03/11 02:20:20;;;;;;;1.47;1.03;;;2.40;63.30;;;;;;5077812;28;20197;-82
2023/03/11 02:22:48;;;;;;;1.50;1.40;;;2.40;64.00;;;;;;5075501;28;20213;-82
2023/03/11 02:25:26;;;;;;;0.97;0.93;;;2.30;63.00;;;;;;5079573;28;20224;-82
2023/03/11 02:27:56;;;;;;;1.50;1.30;;;2.30;63.90;;;;;;5075916;28;20193;-82
2023/03/11 02:30:26;;;;;;;1.17;1.00;;;2.30;62.60;;;;;;5079403;28;20247;-82
2023/03/11 02:32:54;;;;;;;1.20;1.10;;;2.20;63.40;;;;;;5080567;28;20280;-82
2023/03/11 02:35:22;;;;;;;2.20;1.63;;;2.20;61.80;;;;;;5090639;28;20758;-83
2023/03/11 02:37:51;;;;;;;1.30;1.20;;;2.20;62.10;;;;;;5079839;28;20664;-84
2023/03/11 02:40:43;;;;;;;1.10;1.10;;;2.20;63.30;;;;;;5084083;28;20228;-82
2023/03/11 02:43:15;;;;;;;1.10;1.00;;;2.20;61.60;;;;;;5081374;28;20197;-83
2023/03/11 02:45:45;;;;;;;1.20;1.10;;;2.20;62.70;;;;;;5077809;28;20723;-82
2023/03/11 02:48:13;;;;;;;1.00;0.90;;;2.20;62.90;;;;;;5079846;28;20201;-82
2023/03/11 02:50:41;;;;;;;2.00;1.03;;;2.10;62.40;;;;;;5083588;28;20197;-83
2023/03/11 02:53:08;;;;;;;0.97;0.97;;;2.10;63.40;;;;;;5076633;28;20568;-82
2023/03/11 02:55:36;;;;;;;1.13;1.03;;;2.10;65.20;;;;;;5079233;28;20216;-82
2023/03/11 02:58:03;;;;;;;1.10;1.07;;;2.10;65.90;;;;;;5079040;28;20192;-83
2023/03/11 03:00:31;;;;;;;1.40;1.30;;;2.10;63.80;;;;;;5080884;28;20193;-82
2023/03/11 03:02:58;;;;;;;1.13;1.10;;;2.10;63.20;;;;;;5084780;28;20197;-82
2023/03/11 03:05:24;;;;;;;2.43;1.17;;;2.00;65.20;;;;;;5083377;28;20228;-82
2023/03/11 03:07:51;;;;;;;1.60;1.50;;;2.00;63.50;;;;;;5084204;28;20204;-82
2023/03/11 03:10:20;;;;;;;1.47;1.20;;;2.00;62.70;;;;;;5078350;28;20213;-82
2023/03/11 03:12:47;;;;;;;1.47;1.37;;;2.00;61.80;;;;;;5081812;28;20212;-82
2023/03/11 03:15:14;;;;;;;2.17;1.57;;;2.00;59.90;;;;;;5080707;28;20275;-82
2023/03/11 03:17:43;;;;;;;2.03;1.40;;;2.00;60.20;;;;;;5080596;28;20197;-82
2023/03/11 03:20:12;;;;;;;1.33;1.00;;;2.00;61.80;;;;;;5085413;28;20215;-82
2023/03/11 03:22:39;;;;;;;1.63;1.27;;;2.00;61.20;;;;;;5080381;28;20221;-82
2023/03/11 03:25:08;;;;;;;1.20;1.07;;;1.90;61.00;;;;;;5076762;28;20243;-82
2023/03/11 03:27:35;;;;;;;2.20;1.17;;;1.90;61.50;;;;;;5084611;28;20247;-81
2023/03/11 03:30:02;;;;;;;1.30;1.10;;;1.90;62.40;;;;;;5076516;28;20197;-82
2023/03/11 03:32:29;;;;;;;1.17;1.10;;;1.80;61.90;;;;;;5083142;28;20216;-81
2023/03/11 03:34:58;;;;;;;1.97;1.00;;;1.90;59.30;;;;;;5082720;28;20198;-82
2023/03/11 03:37:26;;;;;;;1.30;1.20;;;1.80;61.10;;;;;;5085970;28;20211;-85
2023/03/11 03:39:53;;;;;;;0.90;0.90;;;1.80;60.50;;;;;;5090806;28;20197;-81
2023/03/11 03:42:20;;;;;;;0.97;0.97;;;1.80;60.40;;;;;;5088140;28;20197;-81
2023/03/11 03:44:47;;;;;;;1.10;0.97;;;1.80;60.30;;;;;;5088968;28;20200;-82
2023/03/11 03:47:14;;;;;;;1.47;1.00;;;1.70;60.80;;;;;;5081893;28;20221;-81
2023/03/11 03:49:41;;;;;;;1.23;0.93;;;1.70;59.60;;;;;;5079689;28;20192;-82
2023/03/11 03:52:09;;;;;;;2.83;1.00;;;1.70;60.00;;;;;;5082203;28;20821;-81
2023/03/11 03:54:36;;;;;;;1.70;1.13;;;1.70;60.10;;;;;;5074495;28;20676;-81
2023/03/11 03:57:04;;;;;;;1.10;1.00;;;1.70;59.50;;;;;;5077233;28;20658;-82
2023/03/11 03:59:30;;;;;;;2.83;1.10;;;1.70;60.90;;;;;;5083353;28;20197;-81
2023/03/11 04:01:57;;;;;;;1.17;1.07;;;1.70;59.60;;;;;;5078246;28;20189;-82
2023/03/11 04:04:24;;;;;;;1.10;0.90;;;1.70;60.90;;;;;;5088443;28;20572;-82
2023/03/11 04:06:51;;;;;;;3.20;1.10;;;1.80;59.10;;;;;;5084216;28;20604;-82
2023/03/11 04:09:20;;;;;;;1.17;1.00;;;1.70;59.10;;;;;;5082080;28;20205;-81
2023/03/11 04:11:47;;;;;;;0.90;0.90;;;1.70;61.60;;;;;;5076658;28;20197;-82
2023/03/11 04:14:14;;;;;;;1.13;0.97;;;1.70;60.90;;;;;;5077673;28;20197;-81
2023/03/11 04:16:41;;;;;;;1.10;1.00;;;1.60;61.50;;;;;;5072237;28;20218;-81
2023/03/11 04:19:09;;;;;;;1.20;0.97;;;1.60;61.60;;;;;;5080569;28;20193;-81
2023/03/11 04:21:36;;;;;;;0.93;0.90;;;1.70;60.50;;;;;;5077752;28;20205;-81
2023/03/11 04:24:02;;;;;;;1.07;0.93;;;1.60;61.50;;;;;;5081727;28;20189;-81
2023/03/11 04:26:31;;;;;;;1.00;0.80;;;1.60;61.60;;;;;;5082077;28;20707;-81
2023/03/11 04:28:58;;;;;;;0.90;0.90;;;1.70;60.10;;;;;;5084636;28;20193;-81
2023/03/11 04:31:24;;;;;;;1.00;1.00;;;1.60;61.60;;;;;;5077215;28;20210;-82
2023/03/11 04:33:51;;;;;;;1.20;1.10;;;1.60;62.90;;;;;;5078389;28;20248;-82
2023/03/11 04:36:18;;;;;;;1.20;1.00;;;1.60;61.00;;;;;;5074162;28;20201;-81
2023/03/11 04:38:46;;;;;;;1.27;1.13;;;1.60;62.50;;;;;;5077455;28;20204;-82
2023/03/11 04:41:13;;;;;;;1.43;1.23;;;1.60;63.30;;;;;;5079970;28;20587;-82
2023/03/11 04:43:41;;;;;;;2.00;1.30;;;1.50;66.00;;;;;;5086094;28;20220;-81
2023/03/11 04:46:08;;;;;;;0.80;0.80;;;1.60;64.90;;;;;;5074255;28;20225;-82
2023/03/11 04:48:35;;;;;;;1.00;1.00;;;1.60;65.20;;;;;;5071679;28;20204;-81
2023/03/11 04:51:02;;;;;;;1.77;1.10;;;1.50;66.00;;;;;;5078821;28;20209;-82
2023/03/11 04:53:28;;;;;;;2.77;1.37;;;1.60;66.10;;;;;;5086256;28;20201;-81
2023/03/11 04:55:55;;;;;;;1.20;1.10;;;1.60;66.10;;;;;;5075758;28;20196;-81
2023/03/11 04:58:22;;;;;;;1.37;1.20;;;1.60;66.20;;;;;;5076473;28;20902;-81
2023/03/11 05:00:55;;;;;;;1.27;1.17;;;1.60;66.10;;;;;;5079283;28;20200;-81
2023/03/11 05:03:22;;;;;;;2.30;1.20;;;1.70;66.20;;;;;;5082252;28;20193;-83
2023/03/11 05:05:49;;;;;;;2.07;1.23;;;1.70;67.70;;;;;;5080494;28;20193;-82
2023/03/11 05:08:15;;;;;;;1.30;0.90;;;1.80;66.50;;;;;;5076145;28;20243;-82
2023/03/11 05:10:43;;;;;;;2.00;1.10;;;1.80;65.10;;;;;;5075001;28;20213;-81
2023/03/11 05:13:10;;;;;;;1.30;1.20;;;1.90;66.00;;;;;;5070892;28;20696;-82
2023/03/11 05:15:37;;;;;;;3.00;1.20;;;1.90;64.20;;;;;;5072234;28;20226;-82
2023/03/11 05:18:05;;;;;;;0.93;0.80;;;2.00;62.80;;;;;;5071916;28;20223;-81
2023/03/11 05:20:32;;;;;;;1.50;1.30;;;2.00;63.50;;;;;;5077997;28;20213;-82
2023/03/11 05:22:59;;;;;;;1.40;1.30;;;2.00;65.10;;;;;;5079218;28;20221;-81
2023/03/11 05:25:26;;;;;;;1.37;1.27;;;2.00;65.80;;;;;;5075920;28;20694;-82
2023/03/11 05:27:53;;;;;;;1.20;1.20;;;2.00;65.00;;;;;;5081499;28;20218;-81
2023/03/11 05:30:22;;;;;;;1.40;1.30;;;2.20;63.80;;;;;;5079782;28;20529;-81
2023/03/11 05:32:50;;;;;;;2.30;1.30;;;2.20;64.20;;;;;;5080120;28;20280;-82
2023/03/11 05:35:19;;;;;;;1.27;1.17;;;2.10;64.90;;;;;;5078714;28;20571;-82
2023/03/11 05:37:48;;;;;;;1.80;1.70;;;2.10;65.00;;;;;;5081175;28;20713;-82
2023/03/11 05:40:16;;;;;;;1.67;1.57;;;2.00;68.00;;;;;;5076763;28;20201;-82
2023/03/11 05:42:43;;;;;;;1.47;1.37;;;2.00;66.70;;;;;;5071703;28;20216;-81
2023/03/11 05:45:11;;;;;;;1.43;1.30;;;2.00;66.60;;;;;;5070269;28;20201;-83
2023/03/11 05:47:41;;;;;;;1.00;1.00;;;2.00;66.60;;;;;;5080506;28;20225;-81
2023/03/11 05:50:09;;;;;;;1.97;1.47;;;2.10;66.70;;;;;;5078798;28;20201;-81
2023/03/11 05:52:38;;;;;;;2.40;1.87;;;2.10;66.70;;;;;;5077860;28;20214;-82
2023/03/11 05:55:08;;;;;;;2.50;1.50;;;2.10;66.90;;;;;;5078607;28;20201;-82
2023/03/11 05:57:35;;;;;;;1.30;1.20;;;2.10;66.70;;;;;;5086311;28;20204;-82
2023/03/11 06:00:03;;;;;;;1.40;1.30;;;2.10;64.60;;;;;;5083097;28;20220;-82
2023/03/11 06:02:30;;;;;;;1.30;1.10;;;2.10;61.30;;;;;;5089092;28;20189;-82
2023/03/11 06:04:57;;;;;;;1.23;1.10;;;2.10;58.60;;;;;;5077433;28;20236;-82
2023/03/11 06:07:23;;;;;;;1.77;1.40;;;2.10;57.60;;;;;;5079345;28;20220;-82
2023/03/11 06:09:52;;;;;;;1.33;1.23;;;2.10;59.30;;;;;;5081360;28;20201;-84
2023/03/11 06:12:19;;;;;;;1.07;1.03;;;2.10;59.00;;;;;;5080049;28;20201;-82
2023/03/11 06:14:46;;;;;;;2.73;1.10;;;2.00;56.90;;;;;;5081629;28;20204;-81
2023/03/11 06:17:13;;;;;;;1.20;1.10;;;2.00;57.50;;;;;;5080732;28;20196;-82
2023/03/11 06:19:40;;;;;;;2.33;1.47;;;2.00;58.00;;;;;;5086056;28;20197;-81
2023/03/11 06:22:07;;;;;;;1.23;1.10;;;2.00;56.50;;;;;;5083778;28;20278;-82
2023/03/11 06:24:34;;;;;;;1.47;1.37;;;2.10;55.20;;;;;;5081136;28;20208;-81
2023/03/11 06:27:02;;;;;;;2.57;1.20;;;2.00;54.10;;;;;;5076420;28;20217;-82
2023/03/11 06:29:28;;;;;;;1.67;1.40;;;2.00;54.60;;;;;;5082733;28;20585;-82
2023/03/11 06:31:55;;;;;;;2.63;1.30;;;2.00;50.70;;;;;;5080825;28;20201;-82
2023/03/11 06:34:23;;;;;;;1.10;1.00;;;2.10;52.10;;;;;;5088415;28;20200;-81
2023/03/11 06:36:50;;;;;;;1.57;1.00;;;2.10;51.20;;;;;;5074393;28;20201;-82
2023/03/11 06:39:17;;;;;;;3.87;1.10;;;2.10;48.60;;;;;;5074368;28;20207;-82
2023/03/11 06:41:43;;;;;;;1.47;1.10;;;2.10;46.00;;;;;;5082924;28;20224;-82
2023/03/11 06:44:12;;;;;;;3.57;1.20;;;2.20;46.00;;;;;;5075613;28;20221;-82
2023/03/11 06:46:39;;;;;;;1.17;1.03;;;2.20;45.80;;;;;;5075859;28;20244;-82
2023/03/11 06:49:06;;;;;;;3.23;1.17;;;2.20;44.10;;;;;;5083520;28;20190;-82
2023/03/11 06:51:33;;;;;;;1.67;1.37;;;2.20;43.70;;;;;;5082651;28;20193;-83
2023/03/11 06:54:00;;;;;;;2.80;1.17;;;2.30;42.70;;;;;;5083120;28;20193;-81
2023/03/11 06:56:27;;;;;;;2.07;1.30;;;2.40;42.20;;;;;;5096206;28;20546;-81
2023/03/11 06:58:54;;;;;;;1.87;1.43;;;2.30;42.10;;;;;;5090892;28;20288;-80
2023/03/11 07:01:24;;;;;;;2.27;1.13;;;2.20;42.00;;;;;;5086784;28;20216;-81
2023/03/11 07:03:51;;;;;;;3.93;1.67;;;2.40;42.20;;;;;;5081628;28;20204;-81
2023/03/11 07:06:20;;;;;;;1.80;1.40;;;2.40;42.20;;;;;;5079638;28;20205;-82
2023/03/11 07:08:49;;;;;;;2.17;1.10;;;2.60;42.30;;;;;;5074301;28;20208;-83
2023/03/11 07:11:17;;;;;;;1.30;1.20;;;2.50;40.70;;;;;;5080675;28;20673;-81
2023/03/11 07:13:44;;;;;;;1.63;1.40;;;2.40;42.30;;;;;;5072974;28;20201;-81
2023/03/11 07:16:14;;;;;;;1.90;1.07;;;2.40;42.20;;;;;;5079353;28;20201;-81
2023/03/11 07:18:43;;;;;;;3.20;1.37;;;2.30;42.90;;;;;;5078465;28;20226;-81
2023/03/11 07:21:14;;;;;;;1.40;1.30;;;2.00;44.10;;;;;;5079706;28;20239;-84
2023/03/11 07:23:41;;;;;;;2.77;1.40;;;2.10;48.70;;;;;;5084547;28;20267;-82
2023/03/11 07:26:12;;;;;;;2.03;1.47;;;2.20;48.30;;;;;;5078401;28;20676;-82
2023/03/11 07:28:39;;;;;;;1.60;1.40;;;2.40;47.80;;;;;;5076735;28;20205;-81
2023/03/11 07:31:07;;;;;;;3.00;1.67;;;2.40;47.70;;;;;;5077477;28;20193;-81
2023/03/11 07:33:34;;;;;;;1.60;1.30;;;2.50;47.20;;;;;;5080015;28;20197;-82
2023/03/11 07:36:07;;;;;;;2.37;1.93;;;2.60;48.50;;;;;;5076739;28;20190;-82
2023/03/11 07:38:34;;;;;;;2.67;2.17;;;2.40;47.70;;;;;;5073432;28;20281;-83
2023/03/11 07:41:01;;;;;;;3.90;1.33;;;2.20;49.20;;;;;;5076937;28;20225;-80
2023/03/11 07:43:28;;;;;;;1.70;1.60;;;2.10;49.20;;;;;;5079288;28;20216;-81
2023/03/11 07:46:03;;;;;;;2.57;1.57;;;2.00;49.70;;;;;;5083982;28;20201;-80
2023/03/11 07:48:30;;;;;;;3.47;1.70;;;2.20;51.80;;;;;;5079423;28;20295;-80
2023/03/11 07:51:04;;;;;;;2.10;1.37;;;2.30;51.20;;;;;;5079998;28;20348;-80
2023/03/11 07:53:33;;;;;;;2.10;1.37;;;2.60;47.60;;;;;;5082348;28;20761;-84
2023/03/11 07:56:01;;;;;;;2.43;1.50;;;2.70;45.90;;;;;;5081412;28;20652;-80
2023/03/11 07:58:28;;;;;;;2.87;1.40;;;2.80;46.40;;;;;;5080146;28;20223;-82
2023/03/11 08:00:56;;;;;;;3.33;1.40;;;2.60;44.10;;;;;;5083988;28;20660;-83
2023/03/11 08:03:23;;;;;;;3.47;1.40;;;2.80;44.80;;;;;;5079200;28;20758;-82
2023/03/11 08:05:51;;;;;;;4.53;1.33;;;2.80;42.50;;;;;;5084810;28;20204;-82
2023/03/11 08:08:18;;;;;;;1.50;1.40;;;2.80;42.50;;;;;;5076789;28;20221;-82
2023/03/11 08:10:46;;;;;;;3.27;1.50;;;3.10;42.80;;;;;;5076711;28;20579;-82
2023/03/11 08:13:13;;;;;;;3.53;1.50;;;3.30;41.00;;;;;;5076582;28;20224;-84
2023/03/11 08:15:40;;;;;;;4.10;1.60;;;3.40;38.80;;;;;;5072600;28;20192;-84
2023/03/11 08:18:07;;;;;;;3.67;1.43;;;3.60;36.10;;;;;;5059297;28;20204;-80
2023/03/11 08:20:35;;;;;;;4.27;1.67;;;3.70;36.20;;;;;;5075442;28;20201;-85
2023/03/11 08:23:02;;;;;;;1.97;1.20;;;3.90;36.10;;;;;;5079845;28;20273;-82
2023/03/11 08:25:29;;;;;;;3.00;1.90;;;4.00;36.90;;;;;;5077762;28;20201;-82
2023/03/11 08:27:57;;;;;;;3.57;1.97;;;4.30;34.90;;;;;;5078773;28;20231;-82
2023/03/11 08:30:24;;;;;;;2.23;1.77;;;4.40;37.50;;;;;;5079254;28;20592;-83
2023/03/11 08:32:51;;;;;;;1.40;1.17;;;4.30;33.50;;;;;;5070662;28;20205;-85
2023/03/11 08:35:18;;;;;;;1.90;1.40;;;4.10;32.10;;;;;;5075320;28;20205;-82
2023/03/11 08:37:45;;;;;;;5.80;1.67;;;3.80;32.40;;;;;;5079344;28;20201;-84
2023/03/11 08:40:13;;;;;;;2.60;1.50;;;3.70;33.00;;;;;;5075681;28;20189;-85
2023/03/11 08:42:40;;;;;;;4.80;1.40;;;4.10;32.20;;;;;;5075090;28;20196;-85
2023/03/11 08:45:12;;;;;;;2.07;1.60;;;4.20;31.20;;;;;;5073559;28;20224;-86
2023/03/11 08:47:39;;;;;;;2.77;1.60;;;4.20;31.90;;;;;;5078309;28;20307;-86
2023/03/11 08:50:11;;;;;;;3.70;1.50;;;4.30;31.60;;;;;;5078229;28;20189;-86
2023/03/11 08:52:38;;;;;;;2.10;1.37;;;4.10;32.30;;;;;;5080853;28;20233;-87
2023/03/11 08:55:07;;;;;;;4.57;1.50;;;4.30;31.60;;;;;;5085338;28;20198;-82
2023/03/11 08:57:34;;;;;;;2.07;1.50;;;4.30;30.70;;;;;;5078383;28;20220;-83
2023/03/11 09:00:01;;;;;;;1.83;1.37;;;4.50;32.40;;;;;;5081018;28;20669;-82
2023/03/11 09:02:29;;;;;;;3.63;1.70;;;4.50;31.30;;;;;;5076994;28;20204;-85
2023/03/11 09:04:56;;;;;;;3.20;1.50;;;4.70;30.80;;;;;;5078702;28;20436;-85
2023/03/11 09:07:23;;;;;;;2.22;1.45;;;5.30;30.70;;;;;;5076364;28;20225;-85
2023/03/11 09:09:50;;;;;;;2.30;1.50;;;5.80;26.40;;;;;;5079903;28;20619;-86
2023/03/11 09:12:18;;;;;;;2.40;1.42;;;6.30;22.30;;;;;;5074876;28;20207;-84
2023/03/11 09:14:45;;;;;;;2.40;1.30;;;6.40;23.90;;;;;;5073037;28;20200;-86
2023/03/11 09:17:13;;;;;;;3.85;1.30;;;6.60;22.50;;;;;;5084139;28;20201;-89
2023/03/11 09:19:41;;;;;;;1.40;1.10;;;6.60;22.50;;;;;;5094241;28;20205;-89
2023/03/11 09:22:08;;;;;;;1.58;1.10;;;6.80;22.70;;;;;;5082191;28;20303;-88
2023/03/11 09:24:36;;;;;;;2.25;1.40;;;6.80;22.70;;;;;;5079583;28;20201;-84
2023/03/11 09:27:03;;;;;;;2.58;1.00;;;6.40;21.40;;;;;;5081908;28;20646;-84
2023/03/11 09:29:30;;;;;;;2.65;1.50;;;6.30;22.40;;;;;;5079736;28;20197;-86
2023/03/11 09:31:57;;;;;;;1.85;1.30;;;5.90;22.00;;;;;;5081845;28;20580;-84
2023/03/11 09:34:24;;;;;;;4.25;1.30;;;5.50;22.80;;;;;;5080687;28;20546;-84
2023/03/11 09:36:52;;;;;;;2.10;1.33;;;5.60;22.80;;;;;;5082123;28;20198;-84
2023/03/11 09:39:19;;;;;;;2.53;1.20;;;6.50;22.50;;;;;;5083480;28;20197;-86
2023/03/11 09:41:53;;;;;;;1.38;1.27;;;7.00;21.70;;;;;;5077287;28;20208;-84
2023/03/11 09:44:26;;;;;;;1.42;1.20;;;6.80;20.30;;;;;;5085107;28;20227;-84
2023/03/11 09:47:27;;;;;;;1.73;1.30;;;6.80;21.50;;;;;;5079259;28;20197;-84
2023/03/11 09:50:13;;;;;;;1.15;1.02;;;6.90;19.60;;;;;;5088125;28;20608;-84
2023/03/11 09:52:46;;;;;;;2.28;1.48;;;6.40;19.70;;;;;;5089666;28;20635;-84
2023/03/11 09:55:30;;;;;;;1.85;1.17;;;6.30;19.00;;;;;;5074929;28;20645;-86
2023/03/11 09:57:59;;;;;;;2.00;1.30;;;6.40;18.30;;;;;;5075695;28;20545;-84
2023/03/11 10:00:26;;;;;;;2.42;1.10;;;7.10;18.90;;;;;;5083351;28;20193;-85
2023/03/11 10:02:54;;;;;;;2.10;1.10;;;7.80;16.40;;;;;;5084943;28;20197;-84
2023/03/11 10:05:30;;;;;;;1.65;1.13;;;8.30;16.50;;;;;;5076562;28;20189;-84
2023/03/11 10:08:10;;;;;;;1.63;1.13;;;8.90;15.50;;;;;;5076807;28;20217;-84
2023/03/11 10:10:50;;;;;;;1.20;1.10;;;8.80;15.00;;;;;;5083171;28;20196;-84
2023/03/11 10:13:22;;;;;;;2.35;1.17;;;8.50;16.30;;;;;;5080489;28;20189;-85
2023/03/11 10:15:56;;;;;;;1.88;1.10;;;8.00;15.40;;;;;;5079426;28;20205;-84
2023/03/11 10:18:53;;;;;;;1.85;1.20;;;7.20;16.60;;;;;;5085604;28;20235;-84
2023/03/11 10:21:31;;;;;;;1.95;1.25;;;7.50;18.30;;;;;;5064627;28;20208;-84
2023/03/11 10:24:13;;;;;;;1.38;1.00;;;8.20;17.40;;;;;;5079017;28;20201;-84
2023/03/11 10:26:44;;;;;;;1.58;1.20;;;9.00;15.40;;;;;;5078755;28;20718;-85
2023/03/11 10:29:17;;;;;;;1.92;1.40;;;9.50;14.00;;;;;;5083750;28;20227;-87
2023/03/11 10:31:49;;;;;;;2.58;1.10;;;9.80;14.60;;;;;;5079673;28;20208;-87
2023/03/11 10:34:21;;;;;;;1.23;0.95;;;10.30;11.30;;;;;;5086761;28;20200;-86
2023/03/11 10:36:58;;;;;;;2.05;1.20;;;10.40;11.20;;;;;;5081704;28;20201;-86
2023/03/11 10:39:27;;;;;;;1.45;1.05;;;10.30;10.30;;;;;;5076446;28;20224;-86
2023/03/11 10:41:57;;;;;;;3.05;1.20;;;10.50;11.30;;;;;;5083300;28;20188;-86
2023/03/11 10:44:29;;;;;;;1.27;0.93;;;10.30;10.50;;;;;;5085309;28;20203;-86
2023/03/11 10:46:56;;;;;;;2.53;1.20;;;9.80;12.00;;;;;;5089140;28;20243;-86
2023/03/11 10:49:23;;;;;;;3.28;1.05;;;9.30;12.90;;;;;;5080613;28;20217;-86
2023/03/11 10:51:51;;;;;;;1.73;1.10;;;9.20;14.50;;;;;;5086959;28;20208;-85
2023/03/11 10:54:25;;;;;;;2.03;1.20;;;9.10;14.20;;;;;;5083017;28;20548;-85
2023/03/11 10:56:55;;;;;;;1.42;0.90;;;8.90;13.50;;;;;;5083495;28;20603;-85
2023/03/11 10:59:25;;;;;;;1.52;0.90;;;8.00;13.80;;;;;;5080709;28;20287;-85
2023/03/11 11:01:57;;;;;;;1.85;1.20;;;7.40;15.80;;;;;;5082247;28;20188;-85
2023/03/11 11:04:29;;;;;;;1.38;0.98;;;7.30;15.30;;;;;;5079937;28;20720;-85
2023/03/11 11:06:58;;;;;;;2.35;1.50;;;7.90;15.40;;;;;;5084987;28;20661;-85
2023/03/11 11:09:25;;;;;;;1.40;1.30;;;8.10;14.40;;;;;;5083710;28;20224;-85
2023/03/11 11:12:05;;;;;;;1.88;1.17;;;7.60;14.80;;;;;;5078672;28;20267;-84
2023/03/11 11:14:46;;;;;;;1.58;1.17;;;7.30;15.50;;;;;;5079455;28;20202;-86
2023/03/11 11:17:24;;;;;;;1.98;1.08;;;7.70;16.30;;;;;;5077178;28;20675;-86
2023/03/11 11:19:52;;;;;;;6.68;4.82;;;7.80;16.20;;;;;;5081873;28;20938;-85
2023/03/11 11:22:22;;;;;;;1.98;1.20;;;7.30;16.40;;;;;;5078751;28;20245;-85
2023/03/11 11:24:51;;;;;;;3.45;1.30;;;7.30;17.00;;;;;;5075966;28;20198;-85
2023/03/11 11:27:21;;;;;;;3.65;2.00;;;7.20;18.60;;;;;;5080920;28;20246;-86
2023/03/11 11:30:04;;;;;;;1.80;1.20;;;7.60;17.60;;;;;;5081448;28;20220;-84
2023/03/11 11:32:30;;;;;;;1.92;1.10;;;7.30;17.60;;;;;;5085683;28;20208;-85
2023/03/11 11:35:00;;;;;;;2.45;1.23;;;7.00;18.60;;;;;;5079109;28;20214;-84
2023/03/11 11:37:30;;;;;;;4.07;1.17;;;7.00;22.90;;;;;;5077683;28;20679;-84
2023/03/11 11:40:08;;;;;;;3.97;1.65;;;6.90;20.00;;;;;;5087743;28;20196;-84
2023/03/11 11:42:38;;;;;;;3.88;1.60;;;6.90;20.20;;;;;;5085235;28;20203;-86
2023/03/11 11:45:16;;;;;;;3.45;1.20;;;7.00;18.90;;;;;;5079718;28;20228;-85
2023/03/11 11:47:48;;;;;;;4.30;1.53;;;6.90;18.80;;;;;;5075026;28;20200;-82
2023/03/11 11:50:28;;;;;;;1.30;1.20;;;6.80;20.00;;;;;;5078688;28;20207;-82
2023/03/11 11:53:01;;;;;;;3.40;1.10;;;6.50;20.60;;;;;;5085239;28;20208;-82
2023/03/11 11:55:30;;;;;;;3.83;1.30;;;6.60;19.60;;;;;;5076051;28;20208;-82
2023/03/11 11:57:59;;;;;;;2.23;1.60;;;6.70;19.60;;;;;;5081106;28;20282;-82
2023/03/11 12:00:36;;;;;;;1.33;1.10;;;6.90;19.10;;;;;;5083975;28;20270;-83
2023/03/11 12:03:19;;;;;;;1.23;1.10;;;6.90;18.10;;;;;;5080085;28;20197;-83
2023/03/11 12:05:56;;;;;;;3.23;1.30;;;6.90;17.00;;;;;;5075227;28;20526;-82
2023/03/11 12:08:33;;;;;;;2.83;1.43;;;6.60;18.50;;;;;;5079791;28;20596;-82
2023/03/11 12:11:02;;;;;;;1.40;1.30;;;6.50;19.10;;;;;;5075256;28;20276;-83
2023/03/11 12:13:49;;;;;;;1.33;1.13;;;6.30;19.70;;;;;;5076779;28;20205;-82
2023/03/11 12:16:26;;;;;;;2.90;1.20;;;6.10;19.00;;;;;;5072002;28;20205;-82
2023/03/11 12:18:57;;;;;;;2.03;1.20;;;6.20;22.20;;;;;;5082396;28;20686;-82
2023/03/11 12:21:47;;;;;;;1.40;1.00;;;6.30;20.60;;;;;;5083832;28;20213;-84
2023/03/11 12:24:30;;;;;;;1.33;1.00;;;6.30;18.60;;;;;;5080701;28;20205;-82
2023/03/11 12:27:02;;;;;;;1.20;1.10;;;6.50;18.70;;;;;;5077356;28;20192;-83
2023/03/11 12:29:34;;;;;;;3.30;1.13;;;6.40;18.60;;;;;;5073758;28;20279;-83
2023/03/11 12:32:02;;;;;;;1.83;1.20;;;6.20;18.50;;;;;;5089222;28;20192;-82
2023/03/11 12:34:33;;;;;;;2.73;1.30;;;6.10;20.00;;;;;;5085327;28;20575;-83
2023/03/11 12:37:02;;;;;;;4.60;1.13;;;6.20;19.00;;;;;;5077531;28;20657;-82
2023/03/11 12:39:31;;;;;;;2.20;1.10;;;6.00;19.00;;;;;;5077628;28;20311;-81
2023/03/11 12:42:19;;;;;;;2.33;1.30;;;6.10;19.40;;;;;;5076778;28;20200;-82
2023/03/11 12:44:49;;;;;;;1.40;1.20;;;6.20;22.20;;;;;;5075282;28;20193;-82
2023/03/11 12:47:21;;;;;;;2.03;1.17;;;6.10;22.10;;;;;;5074648;28;20201;-82
2023/03/11 12:49:50;;;;;;;3.03;1.20;;;6.00;20.00;;;;;;5078295;28;20204;-81
2023/03/11 12:52:29;;;;;;;3.27;1.20;;;5.90;20.20;;;;;;5074395;28;20247;-82
2023/03/11 12:55:29;;;;;;;2.03;1.20;;;5.80;21.90;;;;;;5080048;28;20570;-81
2023/03/11 12:58:20;;;;;;;3.37;1.60;;;5.90;20.70;;;;;;5087500;28;20192;-82
2023/03/11 13:01:06;;;;;;;2.90;1.53;;;6.10;22.10;;;;;;5059588;28;20299;-81
2023/03/11 13:03:44;;;;;;;1.10;1.00;;;5.90;20.60;;;;;;5088660;28;20192;-82
2023/03/11 13:06:22;;;;;;;3.77;1.43;;;6.00;22.10;;;;;;5082781;28;20197;-81
2023/03/11 13:08:53;;;;;;;3.30;1.30;;;6.10;20.50;;;;;;5083726;28;20204;-83
2023/03/11 13:11:34;;;;;;;2.60;1.60;;;6.20;20.10;;;;;;5082247;28;20276;-82